Time;durP1;ratioP1;P1;durP2;ratioP2;P2;SDS_P1;SDS_P2;PMS_P1;PMS_P2;Temp;Humidity;BMP_temperature;BMP_pressure;BME280_temperature;BME280_humidity;BME280_pressure;Samples;Min_cycle;Max_cycle;Signal;HPM_P1;HPM_P2
2021/08/15 00:02:23;;;;;;;;;;;;;;;;;;5032267;28;19933;-66
2021/08/15 00:04:50;;;;;;;;;;;;;;;;;;5037932;28;19932;-68
2021/08/15 00:07:18;;;;;;;;;;;;;;;;;;5032098;28;19929;-68
2021/08/15 00:09:45;;;;;;;;;;;;;;;;;;5032301;28;19932;-66
2021/08/15 00:12:12;;;;;;;;;;;;;;;;;;5030655;28;20305;-68
2021/08/15 00:14:39;;;;;;;;;;;;;;;;;;5031828;28;19932;-69
2021/08/15 00:17:06;;;;;;;;;;;;;;;;;;5029779;28;19925;-69
2021/08/15 00:19:33;;;;;;;;;;;;;;;;;;5029518;28;19925;-69
2021/08/15 00:22:00;;;;;;;;;;;;;;;;;;5034871;28;19925;-68
2021/08/15 00:24:27;;;;;;;;;;;;;;;;;;5030808;28;19936;-68
2021/08/15 00:26:54;;;;;;;;;;;;;;;;;;5033770;28;19936;-69
2021/08/15 00:29:21;;;;;;;;;;;;;;;;;;5030860;28;19936;-69
2021/08/15 00:31:47;;;;;;;;;;;;;;;;;;5034678;28;19951;-68
2021/08/15 00:34:14;;;;;;;;;;;;;;;;;;5030810;28;19925;-67
2021/08/15 00:36:41;;;;;;;;;;;;;;;;;;5033726;28;19948;-68
2021/08/15 00:39:08;;;;;;;;;;;;;;;;;;5025579;28;20304;-69
2021/08/15 00:41:35;;;;;;;;;;;;;;;;;;5031886;28;19925;-67
2021/08/15 00:44:02;;;;;;;;;;;;;;;;;;5034449;28;19925;-69
2021/08/15 00:46:29;;;;;;;;;;;;;;;;;;5030051;28;19929;-69
2021/08/15 00:48:56;;;;;;;;;;;;;;;;;;5029168;28;19945;-68
2021/08/15 00:51:23;;;;;;;;;;;;;;;;;;5037585;28;20381;-69
2021/08/15 00:53:50;;;;;;;;;;;;;;;;;;5034245;28;20363;-70
2021/08/15 00:56:17;;;;;;;;;;;;;;;;;;5033906;28;19925;-67
2021/08/15 00:58:44;;;;;;;;;;;;;;;;;;5038238;28;19925;-68
2021/08/15 01:01:11;;;;;;;;;;;;;;;;;;5029925;28;20381;-69
2021/08/15 01:03:38;;;;;;;;;;;;;;;;;;5028360;28;20285;-68
2021/08/15 01:06:05;;;;;;;;;;;;;;;;;;5036500;28;19932;-69
2021/08/15 01:08:32;;;;;;;;;;;;;;;;;;5029318;28;19925;-67
2021/08/15 01:10:59;;;;;;;;;;;;;;;;;;5029537;28;19952;-72
2021/08/15 01:13:26;;;;;;;;;;;;;;;;;;5026706;28;19933;-67
2021/08/15 01:15:52;;;;;;;;;;;;;;;;;;5030308;28;19936;-67
2021/08/15 01:18:19;;;;;;;;;;;;;;;;;;5031865;28;19925;-68
2021/08/15 01:20:46;;;;;;;;;;;;;;;;;;5034685;28;19948;-68
2021/08/15 01:23:13;;;;;;;;;;;;;;;;;;5038718;28;19928;-68
2021/08/15 01:25:40;;;;;;;;;;;;;;;;;;5035832;28;19932;-68
2021/08/15 01:28:07;;;;;;;;;;;;;;;;;;5037238;28;19925;-68
2021/08/15 01:30:34;;;;;;;;;;;;;;;;;;5033664;28;19936;-67
2021/08/15 01:33:01;;;;;;;;;;;;;;;;;;5032267;28;20296;-69
2021/08/15 01:35:28;;;;;;;;;;;;;;;;;;5036968;28;19925;-69
2021/08/15 01:37:55;;;;;;;;;;;;;;;;;;5041860;28;20027;-68
2021/08/15 01:40:22;;;;;;;;;;;;;;;;;;5036444;28;19925;-68
2021/08/15 01:42:49;;;;;;;;;;;;;;;;;;5035221;28;19929;-69
2021/08/15 01:45:16;;;;;;;;;;;;;;;;;;5042964;28;19924;-68
2021/08/15 01:47:44;;;;;;;;;;;;;;;;;;5035369;28;20131;-68
2021/08/15 01:50:11;;;;;;;;;;;;;;;;;;5036688;28;19925;-69
2021/08/15 01:52:38;;;;;;;;;;;;;;;;;;5030136;28;19933;-68
2021/08/15 01:55:05;;;;;;;;;;;;;;;;;;5033527;28;19925;-69
2021/08/15 01:57:32;;;;;;;;;;;;;;;;;;5033998;28;19933;-69
2021/08/15 01:59:59;;;;;;;;;;;;;;;;;;5034696;28;19925;-68
2021/08/15 02:02:26;;;;;;;;;;;;;;;;;;5034745;28;19936;-69
2021/08/15 02:04:53;;;;;;;;;;;;;;;;;;5031456;28;19933;-69
2021/08/15 02:07:20;;;;;;;;;;;;;;;;;;5033420;28;19925;-69
2021/08/15 02:09:47;;;;;;;;;;;;;;;;;;5033755;28;19933;-69
2021/08/15 02:12:14;;;;;;;;;;;;;;;;;;5032650;28;19929;-69
2021/08/15 02:14:41;;;;;;;;;;;;;;;;;;5032975;28;19925;-69
2021/08/15 02:17:08;;;;;;;;;;;;;;;;;;5037991;28;20296;-69
2021/08/15 02:19:34;;;;;;;;;;;;;;;;;;5035685;28;19936;-69
2021/08/15 02:22:01;;;;;;;;;;;;;;;;;;5032700;28;19930;-69
2021/08/15 02:24:28;;;;;;;;;;;;;;;;;;5029745;28;19932;-69
2021/08/15 02:26:55;;;;;;;;;;;;;;;;;;5029800;28;19932;-69
2021/08/15 02:29:22;;;;;;;;;;;;;;;;;;5035348;28;19932;-69
2021/08/15 02:31:49;;;;;;;;;;;;;;;;;;5036042;28;20415;-69
2021/08/15 02:34:16;;;;;;;;;;;;;;;;;;5040531;28;19931;-69
2021/08/15 02:36:43;;;;;;;;;;;;;;;;;;5037922;28;19996;-69
2021/08/15 02:39:10;;;;;;;;;;;;;;;;;;5033211;28;20325;-68
2021/08/15 02:41:37;;;;;;;;;;;;;;;;;;5028836;28;20450;-68
2021/08/15 02:44:04;;;;;;;;;;;;;;;;;;5030930;28;19929;-68
2021/08/15 02:46:31;;;;;;;;;;;;;;;;;;5032490;28;19949;-68
2021/08/15 02:48:58;;;;;;;;;;;;;;;;;;5032215;28;19925;-68
2021/08/15 02:51:25;;;;;;;;;;;;;;;;;;5033141;28;20345;-68
2021/08/15 02:53:52;;;;;;;;;;;;;;;;;;5029962;28;19925;-68
2021/08/15 02:56:19;;;;;;;;;;;;;;;;;;5035427;28;19940;-68
2021/08/15 02:58:46;;;;;;;;;;;;;;;;;;5032730;28;19925;-68
2021/08/15 03:01:13;;;;;;;;;;;;;;;;;;5031337;28;19931;-68
2021/08/15 03:03:40;;;;;;;;;;;;;;;;;;5029776;28;19926;-69
2021/08/15 03:06:07;;;;;;;;;;;;;;;;;;5030003;28;19948;-68
2021/08/15 03:08:34;;;;;;;;;;;;;;;;;;5028931;28;19925;-68
2021/08/15 03:11:01;;;;;;;;;;;;;;;;;;5036505;28;19925;-68
2021/08/15 03:13:28;;;;;;;;;;;;;;;;;;5028378;28;19924;-68
2021/08/15 03:15:54;;;;;;;;;;;;;;;;;;5032154;28;19928;-68
2021/08/15 03:18:21;;;;;;;;;;;;;;;;;;5033019;28;19925;-68
2021/08/15 03:20:49;;;;;;;;;;;;;;;;;;5034541;28;19929;-68
2021/08/15 03:23:16;;;;;;;;;;;;;;;;;;5031129;28;20007;-68
2021/08/15 03:25:43;;;;;;;;;;;;;;;;;;5033075;28;19924;-68
2021/08/15 03:28:10;;;;;;;;;;;;;;;;;;5030664;28;19925;-68
2021/08/15 03:30:37;;;;;;;;;;;;;;;;;;5033003;28;19929;-68
2021/08/15 03:33:04;;;;;;;;;;;;;;;;;;5027857;28;20304;-68
2021/08/15 03:35:31;;;;;;;;;;;;;;;;;;5029147;28;19925;-68
2021/08/15 03:37:58;;;;;;;;;;;;;;;;;;5029692;28;19940;-68
2021/08/15 03:40:25;;;;;;;;;;;;;;;;;;5030660;28;20385;-68
2021/08/15 03:42:52;;;;;;;;;;;;;;;;;;5026436;22;19948;-67
2021/08/15 03:45:19;;;;;;;;;;;;;;;;;;5015864;28;19933;-67
2021/08/15 03:47:46;;;;;;;;;;;;;;;;;;5016918;28;19926;-66
2021/08/15 03:50:13;;;;;;;;;;;;;;;;;;5008075;28;19937;-67
2021/08/15 03:52:40;;;;;;;;;;;;;;;;;;4994235;28;19930;-67
2021/08/15 03:55:10;;;;;;;;;;;;;;;;;;4992893;28;19926;-66
2021/08/15 03:57:37;;;;;;;;;;;;;;;;;;4988874;28;19925;-67
2021/08/15 04:00:04;;;;;;;;;;;;;;;;;;4988888;28;19933;-66
2021/08/15 04:02:31;;;;;;;;;;;;;;;;;;4993820;28;20270;-66
2021/08/15 04:04:58;;;;;;;;;;;;;;;;;;4995805;28;19926;-68
2021/08/15 04:07:25;;;;;;;;;;;;;;;;;;4991590;28;19945;-68
2021/08/15 04:09:52;;;;;;;;;;;;;;;;;;4990448;28;19930;-68
2021/08/15 04:12:19;;;;;;;;;;;;;;;;;;4991315;28;19929;-68
2021/08/15 04:14:46;;;;;;;;;;;;;;;;;;4992853;28;19932;-68
2021/08/15 04:17:13;;;;;;;;;;;;;;;;;;4989664;28;19936;-67
2021/08/15 04:19:40;;;;;;;;;;;;;;;;;;4986039;28;19992;-68
2021/08/15 04:22:07;;;;;;;;;;;;;;;;;;4993728;28;19925;-68
2021/08/15 04:24:34;;;;;;;;;;;;;;;;;;4994404;28;19930;-68
2021/08/15 04:27:01;;;;;;;;;;;;;;;;;;4992986;28;19934;-68
2021/08/15 04:29:28;;;;;;;;;;;;;;;;;;4993097;28;19934;-68
2021/08/15 04:31:55;;;;;;;;;;;;;;;;;;5004790;28;19925;-67
2021/08/15 04:34:22;;;;;;;;;;;;;;;;;;4995977;28;19926;-67
2021/08/15 04:36:49;;;;;;;;;;;;;;;;;;4991601;28;19934;-67
2021/08/15 04:39:16;;;;;;;;;;;;;;;;;;4997973;28;19925;-67
2021/08/15 04:41:43;;;;;;;;;;;;;;;;;;4989892;28;20374;-67
2021/08/15 04:44:10;;;;;;;;;;;;;;;;;;4992203;28;19925;-66
2021/08/15 04:46:37;;;;;;;;;;;;;;;;;;5004656;28;19925;-67
2021/08/15 04:49:04;;;;;;;;;;;;;;;;;;4990299;28;19933;-66
2021/08/15 04:51:31;;;;;;;;;;;;;;;;;;4990774;28;19925;-67
2021/08/15 04:53:58;;;;;;;;;;;;;;;;;;4991379;28;19934;-66
2021/08/15 04:56:25;;;;;;;;;;;;;;;;;;4996314;28;20293;-66
2021/08/15 04:58:52;;;;;;;;;;;;;;;;;;4994971;28;20072;-66
2021/08/15 05:01:19;;;;;;;;;;;;;;;;;;4997947;28;19925;-67
2021/08/15 05:03:46;;;;;;;;;;;;;;;;;;4994007;28;19930;-67
2021/08/15 05:06:13;;;;;;;;;;;;;;;;;;4996835;28;20377;-67
2021/08/15 05:08:40;;;;;;;;;;;;;;;;;;4994442;28;19940;-66
2021/08/15 05:11:07;;;;;;;;;;;;;;;;;;4995929;28;19926;-67
2021/08/15 05:13:34;;;;;;;;;;;;;;;;;;4995509;28;19926;-66
2021/08/15 05:16:01;;;;;;;;;;;;;;;;;;4996438;28;20394;-66
2021/08/15 05:18:28;;;;;;;;;;;;;;;;;;4996248;28;19956;-66
2021/08/15 05:20:55;;;;;;;;;;;;;;;;;;4994132;28;19925;-66
2021/08/15 05:23:22;;;;;;;;;;;;;;;;;;4997426;28;19932;-67
2021/08/15 05:25:49;;;;;;;;;;;;;;;;;;4999690;28;19936;-66
2021/08/15 05:28:16;;;;;;;;;;;;;;;;;;4996628;28;19976;-67
2021/08/15 05:30:43;;;;;;;;;;;;;;;;;;4990185;28;19929;-67
2021/08/15 05:33:10;;;;;;;;;;;;;;;;;;4994380;28;20415;-66
2021/08/15 05:35:37;;;;;;;;;;;;;;;;;;5001277;28;20401;-66
2021/08/15 05:38:03;;;;;;;;;;;;;;;;;;4996146;28;20290;-66
2021/08/15 05:40:30;;;;;;;;;;;;;;;;;;4991887;28;19934;-66
2021/08/15 05:42:57;;;;;;;;;;;;;;;;;;4989873;28;19936;-66
2021/08/15 05:45:24;;;;;;;;;;;;;;;;;;4990944;28;19933;-65
2021/08/15 05:47:51;;;;;;;;;;;;;;;;;;4992816;28;19926;-66
2021/08/15 05:50:18;;;;;;;;;;;;;;;;;;4990574;28;19925;-67
2021/08/15 05:52:45;;;;;;;;;;;;;;;;;;4994989;28;19925;-66
2021/08/15 05:55:12;;;;;;;;;;;;;;;;;;4999053;28;20417;-66
2021/08/15 05:57:40;;;;;;;;;;;;;;;;;;4994993;28;19926;-67
2021/08/15 06:00:07;;;;;;;;;;;;;;;;;;4987938;28;19930;-67
2021/08/15 06:02:34;;;;;;;;;;;;;;;;;;4993512;28;20014;-67
2021/08/15 06:05:02;;;;;;;;;;;;;;;;;;4990616;28;19927;-66
2021/08/15 06:07:29;;;;;;;;;;;;;;;;;;4997517;28;19964;-66
2021/08/15 06:09:56;;;;;;;;;;;;;;;;;;4993664;28;19930;-66
2021/08/15 06:12:23;;;;;;;;;;;;;;;;;;4989749;28;20418;-66
2021/08/15 06:14:50;;;;;;;;;;;;;;;;;;4996112;28;20865;-67
2021/08/15 06:17:17;;;;;;;;;;;;;;;;;;4999237;28;19980;-67
2021/08/15 06:19:44;;;;;;;;;;;;;;;;;;4992747;28;19936;-67
2021/08/15 06:22:11;;;;;;;;;;;;;;;;;;4999947;28;20270;-66
2021/08/15 06:24:38;;;;;;;;;;;;;;;;;;4990857;28;19930;-66
2021/08/15 06:27:05;;;;;;;;;;;;;;;;;;4990063;28;20314;-66
2021/08/15 06:29:32;;;;;;;;;;;;;;;;;;4990353;28;20629;-67
2021/08/15 06:31:59;;;;;;;;;;;;;;;;;;4992888;28;19933;-67
2021/08/15 06:34:26;;;;;;;;;;;;;;;;;;4995507;28;19926;-67
2021/08/15 06:36:53;;;;;;;;;;;;;;;;;;4995640;28;19937;-67
2021/08/15 06:39:20;;;;;;;;;;;;;;;;;;4995942;28;19940;-66
2021/08/15 06:41:47;;;;;;;;;;;;;;;;;;4993888;28;19926;-66
2021/08/15 06:44:14;;;;;;;;;;;;;;;;;;4994087;28;19932;-66
2021/08/15 06:46:41;;;;;;;;;;;;;;;;;;4996272;28;19932;-67
2021/08/15 06:49:08;;;;;;;;;;;;;;;;;;4990438;28;19926;-66
2021/08/15 06:51:35;;;;;;;;;;;;;;;;;;4991819;28;19934;-67
2021/08/15 06:54:02;;;;;;;;;;;;;;;;;;4990713;28;19934;-67
2021/08/15 06:56:29;;;;;;;;;;;;;;;;;;4994899;28;19926;-67
2021/08/15 06:58:56;;;;;;;;;;;;;;;;;;4995495;28;20447;-67
2021/08/15 07:01:24;;;;;;;;;;;;;;;;;;4998416;28;19932;-67
2021/08/15 07:03:51;;;;;;;;;;;;;;;;;;4992980;28;19934;-67
2021/08/15 07:06:18;;;;;;;;;;;;;;;;;;4992375;28;20433;-66
2021/08/15 07:08:45;;;;;;;;;;;;;;;;;;4990308;28;19937;-67
2021/08/15 07:11:12;;;;;;;;;;;;;;;;;;4993369;28;19957;-65
2021/08/15 07:13:39;;;;;;;;;;;;;;;;;;4992889;28;19933;-66
2021/08/15 07:16:06;;;;;;;;;;;;;;;;;;5000315;28;19933;-67
2021/08/15 07:18:33;;;;;;;;;;;;;;;;;;4994900;28;19929;-65
2021/08/15 07:21:00;;;;;;;;;;;;;;;;;;5000142;28;19925;-67
2021/08/15 07:23:27;;;;;;;;;;;;;;;;;;4991899;28;19936;-67
2021/08/15 07:25:54;;;;;;;;;;;;;;;;;;4992502;28;20040;-65
2021/08/15 07:28:21;;;;;;;;;;;;;;;;;;4993605;28;19930;-68
2021/08/15 07:30:51;;;;;;;;;;;;;;;;;;4991992;28;19932;-67
2021/08/15 07:33:18;;;;;;;;;;;;;;;;;;5001665;28;19929;-67
2021/08/15 07:35:44;;;;;;;;;;;;;;;;;;4991522;28;19933;-67
2021/08/15 07:38:11;;;;;;;;;;;;;;;;;;4993952;28;19938;-67
2021/08/15 07:40:38;;;;;;;;;;;;;;;;;;4990627;28;19932;-67
2021/08/15 07:43:05;;;;;;;;;;;;;;;;;;4995403;28;19933;-67
2021/08/15 07:45:32;;;;;;;;;;;;;;;;;;4993486;28;19926;-68
2021/08/15 07:47:59;;;;;;;;;;;;;;;;;;4992371;28;20020;-67
2021/08/15 07:50:28;;;;;;;;;;;;;;;;;;4991395;28;20020;-67
2021/08/15 07:52:54;;;;;;;;;;;;;;;;;;4993208;28;20341;-68
2021/08/15 07:55:21;;;;;;;;;;;;;;;;;;4993504;28;19933;-67
2021/08/15 07:57:48;;;;;;;;;;;;;;;;;;4996455;28;19925;-68
2021/08/15 08:00:15;;;;;;;;;;;;;;;;;;4990328;28;19934;-67
2021/08/15 08:02:42;;;;;;;;;;;;;;;;;;4995612;28;19932;-67
2021/08/15 08:05:09;;;;;;;;;;;;;;;;;;4994819;28;19926;-67
2021/08/15 08:07:36;;;;;;;;;;;;;;;;;;4992496;28;19948;-67
2021/08/15 08:10:03;;;;;;;;;;;;;;;;;;4988372;28;19934;-67
2021/08/15 08:12:30;;;;;;;;;;;;;;;;;;4989102;28;20405;-67
2021/08/15 08:14:57;;;;;;;;;;;;;;;;;;4993956;28;19926;-67
2021/08/15 08:17:24;;;;;;;;;;;;;;;;;;4992971;28;19933;-64
2021/08/15 08:19:51;;;;;;;;;;;;;;;;;;4990892;28;20401;-68
2021/08/15 08:22:17;;;;;;;;;;;;;;;;;;4990075;28;19962;-67
2021/08/15 08:24:44;;;;;;;;;;;;;;;;;;4991145;28;19933;-67
2021/08/15 08:27:11;;;;;;;;;;;;;;;;;;4989500;28;19941;-67
2021/08/15 08:29:38;;;;;;;;;;;;;;;;;;4990915;28;19934;-67
2021/08/15 08:32:05;;;;;;;;;;;;;;;;;;4991508;28;19932;-68
2021/08/15 08:34:32;;;;;;;;;;;;;;;;;;4986154;28;20434;-68
2021/08/15 08:36:59;;;;;;;;;;;;;;;;;;4988168;28;19933;-68
2021/08/15 08:39:29;;;;;;;;;;;;;;;;;;4994787;28;19932;-69
2021/08/15 08:41:56;;;;;;;;;;;;;;;;;;4995926;28;20356;-68
2021/08/15 08:44:23;;;;;;;;;;;;;;;;;;4998096;28;20347;-69
2021/08/15 08:46:50;;;;;;;;;;;;;;;;;;4995028;28;20394;-68
2021/08/15 08:49:17;;;;;;;;;;;;;;;;;;4996836;28;19956;-69
2021/08/15 08:51:44;;;;;;;;;;;;;;;;;;4996813;28;20345;-69
2021/08/15 08:54:11;;;;;;;;;;;;;;;;;;4989890;28;19926;-68
2021/08/15 08:56:38;;;;;;;;;;;;;;;;;;4999017;28;19926;-68
2021/08/15 08:59:05;;;;;;;;;;;;;;;;;;4995355;28;19933;-67
2021/08/15 09:01:32;;;;;;;;;;;;;;;;;;4987724;28;20413;-68
2021/08/15 09:03:59;;;;;;;;;;;;;;;;;;4992452;28;19926;-68
2021/08/15 09:06:28;;;;;;;;;;;;;;;;;;4993207;28;19926;-68
2021/08/15 09:08:55;;;;;;;;;;;;;;;;;;4997802;28;19932;-68
2021/08/15 09:11:22;;;;;;;;;;;;;;;;;;4998969;28;20008;-67
2021/08/15 09:13:49;;;;;;;;;;;;;;;;;;4991123;28;19930;-68
2021/08/15 09:16:16;;;;;;;;;;;;;;;;;;4997048;28;20023;-67
2021/08/15 09:18:43;;;;;;;;;;;;;;;;;;4998419;28;19933;-68
2021/08/15 09:21:09;;;;;;;;;;;;;;;;;;4996821;28;19932;-67
2021/08/15 09:23:36;;;;;;;;;;;;;;;;;;4992803;28;19926;-67
2021/08/15 09:26:03;;;;;;;;;;;;;;;;;;4994813;28;20301;-66
2021/08/15 09:28:30;;;;;;;;;;;;;;;;;;4995649;28;19925;-67
2021/08/15 09:30:57;;;;;;;;;;;;;;;;;;4995724;28;20008;-67
2021/08/15 09:33:24;;;;;;;;;;;;;;;;;;4995171;28;19930;-67
2021/08/15 09:35:52;;;;;;;;;;;;;;;;;;4994002;28;19929;-67
2021/08/15 09:38:19;;;;;;;;;;;;;;;;;;4995898;28;20012;-67
2021/08/15 09:40:46;;;;;;;;;;;;;;;;;;4997103;28;20334;-67
2021/08/15 09:43:12;;;;;;;;;;;;;;;;;;4998126;28;19930;-67
2021/08/15 09:45:39;;;;;;;;;;;;;;;;;;4993555;28;20301;-66
2021/08/15 09:48:06;;;;;;;;;;;;;;;;;;4991875;28;19932;-66
2021/08/15 09:50:33;;;;;;;;;;;;;;;;;;5000965;28;20588;-67
2021/08/15 09:53:00;;;;;;;;;;;;;;;;;;4999674;28;20301;-67
2021/08/15 09:55:27;;;;;;;;;;;;;;;;;;4996852;28;19926;-67
2021/08/15 09:57:54;;;;;;;;;;;;;;;;;;4996544;28;20170;-67
2021/08/15 10:00:21;;;;;;;;;;;;;;;;;;4998354;28;19932;-67
2021/08/15 10:02:48;;;;;;;;;;;;;;;;;;4998022;28;19946;-67
2021/08/15 10:05:15;;;;;;;;;;;;;;;;;;4998709;28;20415;-67
2021/08/15 10:07:42;;;;;;;;;;;;;;;;;;4997107;28;19938;-67
2021/08/15 10:10:09;;;;;;;;;;;;;;;;;;4997172;28;20419;-67
2021/08/15 10:12:36;;;;;;;;;;;;;;;;;;4997581;28;20267;-67
2021/08/15 10:15:03;;;;;;;;;;;;;;;;;;4997364;28;19934;-68
2021/08/15 10:17:30;;;;;;;;;;;;;;;;;;4994642;28;19926;-67
2021/08/15 10:19:57;;;;;;;;;;;;;;;;;;4999288;28;19925;-67
2021/08/15 10:22:24;;;;;;;;;;;;;;;;;;4999004;28;19925;-67
2021/08/15 10:24:53;;;;;;;;;;;;;;;;;;4990298;28;19936;-67
2021/08/15 10:27:20;;;;;;;;;;;;;;;;;;4990533;28;19988;-67
2021/08/15 10:29:47;;;;;;;;;;;;;;;;;;4989050;28;19934;-67
2021/08/15 10:32:14;;;;;;;;;;;;;;;;;;4986381;28;19930;-67
2021/08/15 10:34:41;;;;;;;;;;;;;;;;;;4984570;28;19965;-66
2021/08/15 10:37:08;;;;;;;;;;;;;;;;;;4988348;28;20287;-67
2021/08/15 10:39:35;;;;;;;;;;;;;;;;;;4988818;28;20016;-66
2021/08/15 10:42:02;;;;;;;;;;;;;;;;;;4987164;28;19933;-67
2021/08/15 10:44:29;;;;;;;;;;;;;;;;;;4988824;28;19926;-66
2021/08/15 10:46:55;;;;;;;;;;;;;;;;;;4989998;28;20186;-66
2021/08/15 10:49:22;;;;;;;;;;;;;;;;;;4997063;28;19925;-68
2021/08/15 10:51:49;;;;;;;;;;;;;;;;;;4988009;28;19940;-67
2021/08/15 10:54:16;;;;;;;;;;;;;;;;;;4987339;28;19932;-68
2021/08/15 10:56:43;;;;;;;;;;;;;;;;;;4988990;28;19929;-68
2021/08/15 10:59:10;;;;;;;;;;;;;;;;;;4989824;28;19932;-68
2021/08/15 11:01:37;;;;;;;;;;;;;;;;;;4988426;28;19926;-68
2021/08/15 11:04:04;;;;;;;;;;;;;;;;;;5001789;28;20418;-68
2021/08/15 11:06:31;;;;;;;;;;;;;;;;;;4990711;28;19925;-66
2021/08/15 11:08:58;;;;;;;;;;;;;;;;;;4992383;28;20329;-65
2021/08/15 11:11:30;;;;;;;;;;;;;;;;;;4991275;28;20305;-68
2021/08/15 11:13:57;;;;;;;;;;;;;;;;;;4986190;28;19926;-66
2021/08/15 11:16:24;;;;;;;;;;;;;;;;;;4991343;28;19932;-67
2021/08/15 11:18:51;;;;;;;;;;;;;;;;;;4990180;28;19926;-66
2021/08/15 11:21:18;;;;;;;;;;;;;;;;;;4992622;28;19948;-66
2021/08/15 11:23:45;;;;;;;;;;;;;;;;;;4991538;28;19942;-71
2021/08/15 11:26:12;;;;;;;;;;;;;;;;;;4983149;28;19926;-67
2021/08/15 11:28:38;;;;;;;;;;;;;;;;;;4990732;28;20019;-66
2021/08/15 11:31:05;;;;;;;;;;;;;;;;;;4993123;28;19925;-66
2021/08/15 11:33:32;;;;;;;;;;;;;;;;;;4991817;28;19932;-66
2021/08/15 11:35:59;;;;;;;;;;;;;;;;;;4990382;28;19925;-66
2021/08/15 11:38:26;;;;;;;;;;;;;;;;;;4987050;28;19934;-65
2021/08/15 11:40:53;;;;;;;;;;;;;;;;;;4988176;28;19933;-66
2021/08/15 11:43:20;;;;;;;;;;;;;;;;;;4986719;28;19938;-67
2021/08/15 11:45:47;;;;;;;;;;;;;;;;;;4986729;28;19926;-68
2021/08/15 11:48:14;;;;;;;;;;;;;;;;;;4989167;28;19929;-68
2021/08/15 11:50:41;;;;;;;;;;;;;;;;;;4990780;28;19933;-67
2021/08/15 11:53:08;;;;;;;;;;;;;;;;;;4988733;28;19947;-67
2021/08/15 11:55:35;;;;;;;;;;;;;;;;;;4985602;28;19932;-66
2021/08/15 11:58:02;;;;;;;;;;;;;;;;;;4991234;28;19934;-67
2021/08/15 12:00:29;;;;;;;;;;;;;;;;;;4983609;28;19934;-66
2021/08/15 12:02:56;;;;;;;;;;;;;;;;;;4988941;28;20028;-67
2021/08/15 12:05:23;;;;;;;;;;;;;;;;;;4985987;28;19949;-67
2021/08/15 12:07:50;;;;;;;;;;;;;;;;;;4988386;28;21004;-67
2021/08/15 12:10:16;;;;;;;;;;;;;;;;;;4987018;28;19930;-66
2021/08/15 12:12:43;;;;;;;;;;;;;;;;;;4984923;28;19936;-67
2021/08/15 12:15:10;;;;;;;;;;;;;;;;;;4991293;28;20343;-68
2021/08/15 12:17:37;;;;;;;;;;;;;;;;;;4990271;28;19926;-65
2021/08/15 12:20:04;;;;;;;;;;;;;;;;;;4992626;28;19940;-67
2021/08/15 12:22:31;;;;;;;;;;;;;;;;;;4992046;28;19933;-66
2021/08/15 12:24:59;;;;;;;;;;;;;;;;;;4987893;28;19925;-67
2021/08/15 12:27:26;;;;;;;;;;;;;;;;;;4990206;28;19926;-66
2021/08/15 12:29:53;;;;;;;;;;;;;;;;;;4989967;28;19925;-66
2021/08/15 12:32:21;;;;;;;;;;;;;;;;;;4992602;28;19925;-65
2021/08/15 12:34:48;;;;;;;;;;;;;;;;;;4983680;28;19933;-66
2021/08/15 12:37:15;;;;;;;;;;;;;;;;;;4991546;28;19933;-66
2021/08/15 12:39:43;;;;;;;;;;;;;;;;;;4989062;28;19926;-66
2021/08/15 12:42:10;;;;;;;;;;;;;;;;;;4987452;28;20040;-65
2021/08/15 12:44:37;;;;;;;;;;;;;;;;;;4987565;28;20550;-66
2021/08/15 12:47:04;;;;;;;;;;;;;;;;;;4988439;28;19926;-66
2021/08/15 12:49:31;;;;;;;;;;;;;;;;;;4991049;28;19929;-68
2021/08/15 12:51:58;;;;;;;;;;;;;;;;;;4987146;28;20353;-65
2021/08/15 12:54:25;;;;;;;;;;;;;;;;;;4986229;28;19934;-66
2021/08/15 12:56:52;;;;;;;;;;;;;;;;;;4990264;28;19926;-67
2021/08/15 12:59:19;;;;;;;;;;;;;;;;;;4985953;28;19948;-65
2021/08/15 13:01:47;;;;;;;;;;;;;;;;;;4989208;28;19972;-66
2021/08/15 13:04:13;;;;;;;;;;;;;;;;;;4981962;28;20328;-67
2021/08/15 13:06:40;;;;;;;;;;;;;;;;;;4984122;28;19926;-65
2021/08/15 13:09:07;;;;;;;;;;;;;;;;;;4984373;28;19930;-65
2021/08/15 13:11:34;;;;;;;;;;;;;;;;;;4984978;28;19929;-65
2021/08/15 13:14:01;;;;;;;;;;;;;;;;;;4983738;28;19941;-65
2021/08/15 13:16:28;;;;;;;;;;;;;;;;;;4988460;28;19926;-67
2021/08/15 13:18:55;;;;;;;;;;;;;;;;;;4993901;28;20016;-66
2021/08/15 13:21:22;;;;;;;;;;;;;;;;;;4987628;28;20319;-66
2021/08/15 13:23:49;;;;;;;;;;;;;;;;;;4990502;28;19933;-66
2021/08/15 13:26:16;;;;;;;;;;;;;;;;;;4991148;28;20282;-65
2021/08/15 13:28:43;;;;;;;;;;;;;;;;;;4986924;28;20007;-65
2021/08/15 13:31:10;;;;;;;;;;;;;;;;;;4989285;28;19934;-66
2021/08/15 13:33:38;;;;;;;;;;;;;;;;;;4986863;28;19925;-68
2021/08/15 13:36:05;;;;;;;;;;;;;;;;;;4991724;28;19934;-67
2021/08/15 13:38:31;;;;;;;;;;;;;;;;;;4989442;28;19937;-66
2021/08/15 13:40:58;;;;;;;;;;;;;;;;;;4987902;28;19929;-65
2021/08/15 13:43:25;;;;;;;;;;;;;;;;;;4995792;28;19932;-65
2021/08/15 13:45:52;;;;;;;;;;;;;;;;;;4986184;28;20298;-66
2021/08/15 13:48:19;;;;;;;;;;;;;;;;;;4989198;28;20304;-66
2021/08/15 13:50:46;;;;;;;;;;;;;;;;;;4989197;28;20429;-65
2021/08/15 13:53:13;;;;;;;;;;;;;;;;;;4988419;28;20016;-65
2021/08/15 13:55:40;;;;;;;;;;;;;;;;;;4987203;28;19925;-65
2021/08/15 13:58:09;;;;;;;;;;;;;;;;;;4989294;28;20327;-66
2021/08/15 14:00:37;;;;;;;;;;;;;;;;;;4989212;28;19925;-65
2021/08/15 14:03:04;;;;;;;;;;;;;;;;;;4989828;28;19941;-65
2021/08/15 14:05:31;;;;;;;;;;;;;;;;;;4988494;28;19932;-65
2021/08/15 14:07:58;;;;;;;;;;;;;;;;;;4994889;28;19949;-66
2021/08/15 14:10:25;;;;;;;;;;;;;;;;;;4993122;28;19932;-65
2021/08/15 14:12:53;;;;;;;;;;;;;;;;;;4988134;28;19926;-66
2021/08/15 14:15:20;;;;;;;;;;;;;;;;;;4988262;28;20310;-66
2021/08/15 14:17:47;;;;;;;;;;;;;;;;;;4990846;28;19929;-66
2021/08/15 14:20:14;;;;;;;;;;;;;;;;;;4989230;28;19926;-65
2021/08/15 14:22:42;;;;;;;;;;;;;;;;;;4994872;28;19925;-66
2021/08/15 14:25:09;;;;;;;;;;;;;;;;;;4988550;28;19926;-65
2021/08/15 14:27:36;;;;;;;;;;;;;;;;;;4993605;28;20305;-67
2021/08/15 14:30:03;;;;;;;;;;;;;;;;;;4989952;28;19929;-68
2021/08/15 14:32:30;;;;;;;;;;;;;;;;;;4991859;28;19926;-69
2021/08/15 14:34:57;;;;;;;;;;;;;;;;;;4985764;28;19940;-67
2021/08/15 14:37:24;;;;;;;;;;;;;;;;;;4990207;28;20659;-68
2021/08/15 14:39:51;;;;;;;;;;;;;;;;;;4990878;28;19931;-67
2021/08/15 14:42:18;;;;;;;;;;;;;;;;;;4987550;28;20418;-67
2021/08/15 14:44:45;;;;;;;;;;;;;;;;;;4979937;28;19926;-67
2021/08/15 14:47:12;;;;;;;;;;;;;;;;;;4987658;28;19926;-68
2021/08/15 14:49:39;;;;;;;;;;;;;;;;;;4988031;28;19933;-68
2021/08/15 14:52:06;;;;;;;;;;;;;;;;;;4986255;28;20001;-69
2021/08/15 14:54:33;;;;;;;;;;;;;;;;;;4987107;28;19933;-69
2021/08/15 14:57:00;;;;;;;;;;;;;;;;;;4987023;28;19936;-70
2021/08/15 14:59:27;;;;;;;;;;;;;;;;;;4987320;28;21092;-70
2021/08/15 15:01:54;;;;;;;;;;;;;;;;;;4985758;28;19926;-68
2021/08/15 15:04:23;;;;;;;;;;;;;;;;;;4982822;28;20133;-68
2021/08/15 15:06:50;;;;;;;;;;;;;;;;;;4987638;28;20020;-67
2021/08/15 15:09:17;;;;;;;;;;;;;;;;;;4990449;28;19932;-67
2021/08/15 15:11:44;;;;;;;;;;;;;;;;;;4983880;28;20594;-68
2021/08/15 15:14:11;;;;;;;;;;;;;;;;;;4990639;28;20367;-68
2021/08/15 15:16:38;;;;;;;;;;;;;;;;;;4987410;28;19926;-68
2021/08/15 15:19:05;;;;;;;;;;;;;;;;;;4989192;28;20410;-65
2021/08/15 15:21:33;;;;;;;;;;;;;;;;;;4987232;28;20298;-65
2021/08/15 15:24:00;;;;;;;;;;;;;;;;;;4987692;28;19936;-65
2021/08/15 15:26:27;;;;;;;;;;;;;;;;;;4991181;28;20425;-65
2021/08/15 15:28:54;;;;;;;;;;;;;;;;;;4994410;28;19926;-65
2021/08/15 15:31:21;;;;;;;;;;;;;;;;;;4987061;28;20392;-66
2021/08/15 15:33:49;;;;;;;;;;;;;;;;;;4986758;28;19925;-66
2021/08/15 15:36:16;;;;;;;;;;;;;;;;;;4991355;28;19926;-66
2021/08/15 15:38:43;;;;;;;;;;;;;;;;;;4992020;28;19933;-67
2021/08/15 15:41:10;;;;;;;;;;;;;;;;;;5011321;23;19925;-69
2021/08/15 15:43:37;;;;;;;;;;;;;;;;;;5050802;28;19948;-69
2021/08/15 15:46:04;;;;;;;;;;;;;;;;;;5046961;28;19975;-69
2021/08/15 15:48:31;;;;;;;;;;;;;;;;;;5042366;28;20008;-69
2021/08/15 15:50:58;;;;;;;;;;;;;;;;;;5041609;28;19979;-69
2021/08/15 15:53:25;;;;;;;;;;;;;;;;;;5044973;28;19931;-69
2021/08/15 15:55:54;;;;;;;;;;;;;;;;;;5046056;28;19925;-69
2021/08/15 15:58:21;;;;;;;;;;;;;;;;;;5044011;28;19971;-68
2021/08/15 16:00:48;;;;;;;;;;;;;;;;;;5039668;28;20456;-68
2021/08/15 16:03:16;;;;;;;;;;;;;;;;;;5042478;28;19925;-69
2021/08/15 16:05:43;;;;;;;;;;;;;;;;;;5042832;28;20024;-68
2021/08/15 16:08:10;;;;;;;;;;;;;;;;;;5045674;28;19935;-69
2021/08/15 16:10:37;;;;;;;;;;;;;;;;;;5045249;28;19935;-70
2021/08/15 16:13:04;;;;;;;;;;;;;;;;;;5044274;28;19939;-68
2021/08/15 16:15:31;;;;;;;;;;;;;;;;;;5045434;28;20392;-69
2021/08/15 16:17:57;;;;;;;;;;;;;;;;;;5045915;28;19925;-69
2021/08/15 16:20:25;;;;;;;;;;;;;;;;;;5046007;28;19925;-69
2021/08/15 16:22:52;;;;;;;;;;;;;;;;;;5041522;28;20020;-68
2021/08/15 16:25:18;;;;;;;;;;;;;;;;;;5053071;28;19925;-70
2021/08/15 16:27:45;;;;;;;;;;;;;;;;;;5070398;28;19925;-69
2021/08/15 16:30:12;;;;;;;;;;;;;;;;;;5051699;28;20059;-69
2021/08/15 16:32:39;;;;;;;;;;;;;;;;;;5040327;28;19925;-69
2021/08/15 16:35:06;;;;;;;;;;;;;;;;;;5044644;28;21453;-68
2021/08/15 16:37:33;;;;;;;;;;;;;;;;;;5049193;28;19933;-68
2021/08/15 16:40:00;;;;;;;;;;;;;;;;;;5045490;28;20266;-69
2021/08/15 16:42:27;;;;;;;;;;;;;;;;;;5046142;28;20295;-68
2021/08/15 16:44:54;;;;;;;;;;;;;;;;;;5044831;28;20222;-68